sensor_id;sensor_type;location;lat;lon;timestamp;P1;durP1;ratioP1;P2;durP2;ratioP2
13244;SDS011;6689;53.400;12.486;2023-12-20T00:00:39;2.83;;;1.20;;
13244;SDS011;6689;53.400;12.486;2023-12-20T00:03:07;3.70;;;1.10;;
13244;SDS011;6689;53.400;12.486;2023-12-20T00:05:41;2.15;;;1.20;;
13244;SDS011;6689;53.400;12.486;2023-12-20T00:08:31;5.30;;;1.50;;
13244;SDS011;6689;53.400;12.486;2023-12-20T00:11:08;2.20;;;0.98;;
13244;SDS011;6689;53.400;12.486;2023-12-20T00:13:42;3.58;;;1.02;;
13244;SDS011;6689;53.400;12.486;2023-12-20T00:16:14;2.78;;;1.15;;
13244;SDS011;6689;53.400;12.486;2023-12-20T00:21:50;4.03;;;1.40;;
13244;SDS011;6689;53.400;12.486;2023-12-20T00:24:33;5.50;;;1.17;;
13244;SDS011;6689;53.400;12.486;2023-12-20T00:27:19;2.35;;;1.05;;
13244;SDS011;6689;53.400;12.486;2023-12-20T00:30:14;2.97;;;1.05;;
13244;SDS011;6689;53.400;12.486;2023-12-20T00:32:56;4.43;;;1.15;;
13244;SDS011;6689;53.400;12.486;2023-12-20T00:35:50;4.88;;;1.40;;
13244;SDS011;6689;53.400;12.486;2023-12-20T00:41:01;3.38;;;1.23;;
13244;SDS011;6689;53.400;12.486;2023-12-20T00:43:41;2.10;;;1.17;;
13244;SDS011;6689;53.400;12.486;2023-12-20T00:46:13;3.85;;;1.02;;
13244;SDS011;6689;53.400;12.486;2023-12-20T00:48:56;6.75;;;1.00;;
13244;SDS011;6689;53.400;12.486;2023-12-20T00:51:43;3.20;;;1.17;;
13244;SDS011;6689;53.400;12.486;2023-12-20T00:54:25;3.50;;;0.93;;
13244;SDS011;6689;53.400;12.486;2023-12-20T00:56:57;2.70;;;1.15;;
13244;SDS011;6689;53.400;12.486;2023-12-20T00:59:27;6.28;;;2.08;;
13244;SDS011;6689;53.400;12.486;2023-12-20T01:02:01;4.00;;;1.10;;
13244;SDS011;6689;53.400;12.486;2023-12-20T01:04:32;5.38;;;1.63;;
13244;SDS011;6689;53.400;12.486;2023-12-20T01:07:00;4.00;;;1.50;;
13244;SDS011;6689;53.400;12.486;2023-12-20T01:09:45;7.65;;;2.40;;
13244;SDS011;6689;53.400;12.486;2023-12-20T01:12:21;6.85;;;2.90;;
13244;SDS011;6689;53.400;12.486;2023-12-20T01:14:48;4.53;;;2.17;;
13244;SDS011;6689;53.400;12.486;2023-12-20T01:17:22;8.40;;;2.33;;
13244;SDS011;6689;53.400;12.486;2023-12-20T01:19:53;3.80;;;1.83;;
13244;SDS011;6689;53.400;12.486;2023-12-20T01:22:22;10.40;;;2.05;;
13244;SDS011;6689;53.400;12.486;2023-12-20T01:25:17;6.80;;;1.98;;
13244;SDS011;6689;53.400;12.486;2023-12-20T01:27:59;7.97;;;1.88;;
13244;SDS011;6689;53.400;12.486;2023-12-20T01:30:43;5.63;;;2.13;;
13244;SDS011;6689;53.400;12.486;2023-12-20T01:33:12;5.97;;;2.25;;
13244;SDS011;6689;53.400;12.486;2023-12-20T01:38:44;6.07;;;1.95;;
13244;SDS011;6689;53.400;12.486;2023-12-20T01:41:15;6.60;;;2.05;;
13244;SDS011;6689;53.400;12.486;2023-12-20T01:43:50;4.10;;;1.90;;
13244;SDS011;6689;53.400;12.486;2023-12-20T01:46:22;10.07;;;2.28;;
13244;SDS011;6689;53.400;12.486;2023-12-20T01:49:04;10.25;;;1.88;;
13244;SDS011;6689;53.400;12.486;2023-12-20T01:51:36;4.07;;;2.00;;
13244;SDS011;6689;53.400;12.486;2023-12-20T01:54:20;6.85;;;2.10;;
13244;SDS011;6689;53.400;12.486;2023-12-20T01:59:40;11.40;;;2.40;;
13244;SDS011;6689;53.400;12.486;2023-12-20T02:02:08;11.93;;;5.45;;
13244;SDS011;6689;53.400;12.486;2023-12-20T02:04:39;9.27;;;2.53;;
13244;SDS011;6689;53.400;12.486;2023-12-20T02:07:25;10.23;;;2.42;;
13244;SDS011;6689;53.400;12.486;2023-12-20T02:10:06;9.77;;;2.83;;
13244;SDS011;6689;53.400;12.486;2023-12-20T02:12:40;8.75;;;2.80;;
13244;SDS011;6689;53.400;12.486;2023-12-20T02:15:18;7.28;;;2.97;;
13244;SDS011;6689;53.400;12.486;2023-12-20T02:17:48;11.85;;;3.22;;
13244;SDS011;6689;53.400;12.486;2023-12-20T02:20:24;9.18;;;2.92;;
13244;SDS011;6689;53.400;12.486;2023-12-20T02:22:54;16.10;;;5.22;;
13244;SDS011;6689;53.400;12.486;2023-12-20T02:25:24;12.45;;;2.83;;
13244;SDS011;6689;53.400;12.486;2023-12-20T02:27:51;10.77;;;3.17;;
13244;SDS011;6689;53.400;12.486;2023-12-20T02:30:19;12.23;;;3.20;;
13244;SDS011;6689;53.400;12.486;2023-12-20T02:32:46;12.18;;;3.30;;
13244;SDS011;6689;53.400;12.486;2023-12-20T02:35:15;12.55;;;2.33;;
13244;SDS011;6689;53.400;12.486;2023-12-20T02:37:57;10.98;;;4.68;;
13244;SDS011;6689;53.400;12.486;2023-12-20T02:40:39;15.65;;;2.78;;
13244;SDS011;6689;53.400;12.486;2023-12-20T02:43:12;15.40;;;3.20;;
13244;SDS011;6689;53.400;12.486;2023-12-20T02:45:42;12.80;;;2.15;;
13244;SDS011;6689;53.400;12.486;2023-12-20T02:48:13;9.38;;;2.50;;
13244;SDS011;6689;53.400;12.486;2023-12-20T02:50:52;17.90;;;4.68;;
13244;SDS011;6689;53.400;12.486;2023-12-20T02:53:23;10.90;;;2.72;;
13244;SDS011;6689;53.400;12.486;2023-12-20T02:55:56;11.15;;;2.35;;
13244;SDS011;6689;53.400;12.486;2023-12-20T02:58:26;21.52;;;5.43;;
13244;SDS011;6689;53.400;12.486;2023-12-20T03:00:54;16.13;;;2.92;;
13244;SDS011;6689;53.400;12.486;2023-12-20T03:03:30;16.33;;;4.45;;
13244;SDS011;6689;53.400;12.486;2023-12-20T03:06:07;7.47;;;2.35;;
13244;SDS011;6689;53.400;12.486;2023-12-20T03:08:38;12.50;;;3.08;;
13244;SDS011;6689;53.400;12.486;2023-12-20T03:11:17;13.93;;;2.53;;
13244;SDS011;6689;53.400;12.486;2023-12-20T03:13:44;12.60;;;2.50;;
13244;SDS011;6689;53.400;12.486;2023-12-20T03:16:20;18.50;;;4.28;;
13244;SDS011;6689;53.400;12.486;2023-12-20T03:18:56;9.85;;;2.65;;
13244;SDS011;6689;53.400;12.486;2023-12-20T03:21:26;12.52;;;3.88;;
13244;SDS011;6689;53.400;12.486;2023-12-20T03:24:10;15.27;;;3.35;;
13244;SDS011;6689;53.400;12.486;2023-12-20T03:26:46;18.85;;;3.55;;
13244;SDS011;6689;53.400;12.486;2023-12-20T03:29:28;17.83;;;2.80;;
13244;SDS011;6689;53.400;12.486;2023-12-20T03:32:03;12.82;;;2.75;;
13244;SDS011;6689;53.400;12.486;2023-12-20T03:34:45;11.95;;;2.92;;
13244;SDS011;6689;53.400;12.486;2023-12-20T03:37:15;10.82;;;3.20;;
13244;SDS011;6689;53.400;12.486;2023-12-20T03:40:01;15.13;;;3.28;;
13244;SDS011;6689;53.400;12.486;2023-12-20T03:42:44;11.75;;;2.97;;
13244;SDS011;6689;53.400;12.486;2023-12-20T03:45:30;9.32;;;2.83;;
13244;SDS011;6689;53.400;12.486;2023-12-20T03:47:58;10.45;;;3.20;;
13244;SDS011;6689;53.400;12.486;2023-12-20T03:50:30;8.30;;;3.97;;
13244;SDS011;6689;53.400;12.486;2023-12-20T03:53:14;12.98;;;4.03;;
13244;SDS011;6689;53.400;12.486;2023-12-20T03:55:50;9.10;;;3.35;;
13244;SDS011;6689;53.400;12.486;2023-12-20T03:58:18;11.32;;;3.38;;
13244;SDS011;6689;53.400;12.486;2023-12-20T04:00:46;7.75;;;2.25;;
13244;SDS011;6689;53.400;12.486;2023-12-20T04:03:13;13.80;;;3.65;;
13244;SDS011;6689;53.400;12.486;2023-12-20T04:05:40;9.43;;;2.45;;
13244;SDS011;6689;53.400;12.486;2023-12-20T04:08:09;7.97;;;3.13;;
13244;SDS011;6689;53.400;12.486;2023-12-20T04:10:37;10.25;;;2.42;;
13244;SDS011;6689;53.400;12.486;2023-12-20T04:13:14;21.02;;;2.83;;
13244;SDS011;6689;53.400;12.486;2023-12-20T04:15:41;16.00;;;2.50;;
13244;SDS011;6689;53.400;12.486;2023-12-20T04:18:08;10.75;;;1.90;;
13244;SDS011;6689;53.400;12.486;2023-12-20T04:20:36;11.07;;;1.90;;
13244;SDS011;6689;53.400;12.486;2023-12-20T04:23:03;11.30;;;3.33;;
13244;SDS011;6689;53.400;12.486;2023-12-20T04:25:31;10.18;;;2.10;;
13244;SDS011;6689;53.400;12.486;2023-12-20T04:27:58;10.85;;;2.20;;
13244;SDS011;6689;53.400;12.486;2023-12-20T04:30:27;14.98;;;3.65;;
13244;SDS011;6689;53.400;12.486;2023-12-20T04:32:54;11.88;;;2.10;;
13244;SDS011;6689;53.400;12.486;2023-12-20T04:35:22;12.40;;;2.90;;
13244;SDS011;6689;53.400;12.486;2023-12-20T04:37:49;7.97;;;2.33;;
13244;SDS011;6689;53.400;12.486;2023-12-20T04:40:17;13.63;;;2.13;;
13244;SDS011;6689;53.400;12.486;2023-12-20T04:42:44;20.13;;;2.80;;
13244;SDS011;6689;53.400;12.486;2023-12-20T04:45:11;7.90;;;2.00;;
13244;SDS011;6689;53.400;12.486;2023-12-20T04:47:44;6.85;;;2.42;;
13244;SDS011;6689;53.400;12.486;2023-12-20T04:50:14;12.07;;;1.92;;
13244;SDS011;6689;53.400;12.486;2023-12-20T04:52:41;6.97;;;1.80;;
13244;SDS011;6689;53.400;12.486;2023-12-20T04:55:09;11.88;;;2.03;;
13244;SDS011;6689;53.400;12.486;2023-12-20T04:57:37;10.55;;;2.15;;
13244;SDS011;6689;53.400;12.486;2023-12-20T05:00:05;10.75;;;2.20;;
13244;SDS011;6689;53.400;12.486;2023-12-20T05:02:33;16.40;;;2.42;;
13244;SDS011;6689;53.400;12.486;2023-12-20T05:05:02;9.05;;;2.33;;
13244;SDS011;6689;53.400;12.486;2023-12-20T05:07:30;17.15;;;2.65;;
13244;SDS011;6689;53.400;12.486;2023-12-20T05:09:57;13.35;;;2.30;;
13244;SDS011;6689;53.400;12.486;2023-12-20T05:12:25;14.63;;;2.38;;
13244;SDS011;6689;53.400;12.486;2023-12-20T05:14:52;13.32;;;2.70;;
13244;SDS011;6689;53.400;12.486;2023-12-20T05:17:19;14.73;;;1.95;;
13244;SDS011;6689;53.400;12.486;2023-12-20T05:19:46;11.43;;;2.42;;
13244;SDS011;6689;53.400;12.486;2023-12-20T05:22:17;19.70;;;2.65;;
13244;SDS011;6689;53.400;12.486;2023-12-20T05:24:47;18.55;;;2.97;;
13244;SDS011;6689;53.400;12.486;2023-12-20T05:27:15;10.27;;;2.00;;
13244;SDS011;6689;53.400;12.486;2023-12-20T05:29:43;7.35;;;2.35;;
13244;SDS011;6689;53.400;12.486;2023-12-20T05:32:10;8.02;;;2.58;;
13244;SDS011;6689;53.400;12.486;2023-12-20T05:34:37;19.88;;;5.00;;
13244;SDS011;6689;53.400;12.486;2023-12-20T05:37:05;12.52;;;3.58;;
13244;SDS011;6689;53.400;12.486;2023-12-20T05:39:34;8.48;;;2.80;;
13244;SDS011;6689;53.400;12.486;2023-12-20T05:42:01;9.80;;;2.38;;
13244;SDS011;6689;53.400;12.486;2023-12-20T05:44:28;10.50;;;2.70;;
13244;SDS011;6689;53.400;12.486;2023-12-20T05:46:56;12.15;;;2.58;;
13244;SDS011;6689;53.400;12.486;2023-12-20T05:49:23;7.88;;;2.80;;
13244;SDS011;6689;53.400;12.486;2023-12-20T05:51:50;7.45;;;2.38;;
13244;SDS011;6689;53.400;12.486;2023-12-20T05:54:17;10.30;;;3.03;;
13244;SDS011;6689;53.400;12.486;2023-12-20T05:56:54;11.82;;;3.30;;
13244;SDS011;6689;53.400;12.486;2023-12-20T05:59:29;8.55;;;3.03;;
13244;SDS011;6689;53.400;12.486;2023-12-20T06:01:56;15.57;;;3.47;;
13244;SDS011;6689;53.400;12.486;2023-12-20T06:04:24;7.85;;;2.50;;
13244;SDS011;6689;53.400;12.486;2023-12-20T06:06:51;9.57;;;2.90;;
13244;SDS011;6689;53.400;12.486;2023-12-20T06:09:19;14.63;;;2.80;;
13244;SDS011;6689;53.400;12.486;2023-12-20T06:11:47;11.27;;;2.55;;
13244;SDS011;6689;53.400;12.486;2023-12-20T06:14:16;9.35;;;3.55;;
13244;SDS011;6689;53.400;12.486;2023-12-20T06:16:46;8.57;;;2.20;;
13244;SDS011;6689;53.400;12.486;2023-12-20T06:19:15;6.93;;;2.45;;
13244;SDS011;6689;53.400;12.486;2023-12-20T06:21:43;15.40;;;3.35;;
13244;SDS011;6689;53.400;12.486;2023-12-20T06:24:10;13.65;;;2.92;;
13244;SDS011;6689;53.400;12.486;2023-12-20T06:26:42;14.48;;;3.15;;
13244;SDS011;6689;53.400;12.486;2023-12-20T06:29:19;10.80;;;2.55;;
13244;SDS011;6689;53.400;12.486;2023-12-20T06:31:46;12.68;;;3.20;;
13244;SDS011;6689;53.400;12.486;2023-12-20T06:34:18;12.68;;;2.95;;
13244;SDS011;6689;53.400;12.486;2023-12-20T06:36:51;12.63;;;3.70;;
13244;SDS011;6689;53.400;12.486;2023-12-20T06:39:33;10.75;;;3.25;;
13244;SDS011;6689;53.400;12.486;2023-12-20T06:42:00;15.93;;;3.47;;
13244;SDS011;6689;53.400;12.486;2023-12-20T06:44:40;15.40;;;5.03;;
13244;SDS011;6689;53.400;12.486;2023-12-20T06:47:22;16.35;;;3.58;;
13244;SDS011;6689;53.400;12.486;2023-12-20T06:49:58;13.40;;;2.88;;
13244;SDS011;6689;53.400;12.486;2023-12-20T06:52:33;9.40;;;3.22;;
13244;SDS011;6689;53.400;12.486;2023-12-20T06:55:04;12.65;;;3.40;;
13244;SDS011;6689;53.400;12.486;2023-12-20T06:57:51;20.35;;;5.22;;
13244;SDS011;6689;53.400;12.486;2023-12-20T07:00:21;12.25;;;3.25;;
13244;SDS011;6689;53.400;12.486;2023-12-20T07:02:48;8.63;;;2.63;;
13244;SDS011;6689;53.400;12.486;2023-12-20T07:05:16;12.23;;;4.63;;
13244;SDS011;6689;53.400;12.486;2023-12-20T07:07:45;11.07;;;3.15;;
13244;SDS011;6689;53.400;12.486;2023-12-20T07:10:13;17.30;;;3.25;;
13244;SDS011;6689;53.400;12.486;2023-12-20T07:12:41;11.20;;;3.00;;
13244;SDS011;6689;53.400;12.486;2023-12-20T07:15:08;13.85;;;4.38;;
13244;SDS011;6689;53.400;12.486;2023-12-20T07:17:37;7.00;;;2.78;;
13244;SDS011;6689;53.400;12.486;2023-12-20T07:20:05;14.32;;;3.45;;
13244;SDS011;6689;53.400;12.486;2023-12-20T07:22:36;10.27;;;2.70;;
13244;SDS011;6689;53.400;12.486;2023-12-20T07:25:03;11.55;;;3.55;;
13244;SDS011;6689;53.400;12.486;2023-12-20T07:27:34;12.07;;;3.50;;
13244;SDS011;6689;53.400;12.486;2023-12-20T07:30:01;9.38;;;3.28;;
13244;SDS011;6689;53.400;12.486;2023-12-20T07:32:31;16.58;;;3.63;;
13244;SDS011;6689;53.400;12.486;2023-12-20T07:35:20;14.40;;;3.25;;
13244;SDS011;6689;53.400;12.486;2023-12-20T07:37:48;11.30;;;4.32;;
13244;SDS011;6689;53.400;12.486;2023-12-20T07:40:15;19.05;;;3.15;;
13244;SDS011;6689;53.400;12.486;2023-12-20T07:42:43;11.90;;;3.50;;
13244;SDS011;6689;53.400;12.486;2023-12-20T07:45:10;9.02;;;2.75;;
13244;SDS011;6689;53.400;12.486;2023-12-20T07:47:39;11.63;;;3.55;;
13244;SDS011;6689;53.400;12.486;2023-12-20T07:50:06;11.50;;;2.40;;
13244;SDS011;6689;53.400;12.486;2023-12-20T07:52:35;9.98;;;3.65;;
13244;SDS011;6689;53.400;12.486;2023-12-20T07:55:02;13.77;;;3.10;;
13244;SDS011;6689;53.400;12.486;2023-12-20T07:57:30;11.50;;;3.22;;
13244;SDS011;6689;53.400;12.486;2023-12-20T07:59:58;14.60;;;2.65;;
13244;SDS011;6689;53.400;12.486;2023-12-20T08:02:25;11.65;;;2.78;;
13244;SDS011;6689;53.400;12.486;2023-12-20T08:04:54;17.02;;;3.65;;
13244;SDS011;6689;53.400;12.486;2023-12-20T08:07:21;17.55;;;3.53;;
13244;SDS011;6689;53.400;12.486;2023-12-20T08:09:48;8.45;;;2.88;;
13244;SDS011;6689;53.400;12.486;2023-12-20T08:12:16;18.83;;;3.03;;
13244;SDS011;6689;53.400;12.486;2023-12-20T08:14:43;9.20;;;2.85;;
13244;SDS011;6689;53.400;12.486;2023-12-20T08:17:11;12.48;;;3.20;;
13244;SDS011;6689;53.400;12.486;2023-12-20T08:19:41;8.38;;;2.45;;
13244;SDS011;6689;53.400;12.486;2023-12-20T08:22:09;9.77;;;3.13;;
13244;SDS011;6689;53.400;12.486;2023-12-20T08:24:37;18.35;;;3.88;;
13244;SDS011;6689;53.400;12.486;2023-12-20T08:27:04;17.83;;;2.90;;
13244;SDS011;6689;53.400;12.486;2023-12-20T08:29:32;10.60;;;3.63;;
13244;SDS011;6689;53.400;12.486;2023-12-20T08:31:59;13.82;;;2.80;;
13244;SDS011;6689;53.400;12.486;2023-12-20T08:34:26;8.63;;;3.50;;
13244;SDS011;6689;53.400;12.486;2023-12-20T08:36:54;17.45;;;3.60;;
13244;SDS011;6689;53.400;12.486;2023-12-20T08:39:23;16.08;;;4.03;;
13244;SDS011;6689;53.400;12.486;2023-12-20T08:41:50;11.85;;;2.72;;
13244;SDS011;6689;53.400;12.486;2023-12-20T08:44:18;14.48;;;2.42;;
13244;SDS011;6689;53.400;12.486;2023-12-20T08:46:46;12.40;;;2.65;;
13244;SDS011;6689;53.400;12.486;2023-12-20T08:49:13;10.50;;;3.25;;
13244;SDS011;6689;53.400;12.486;2023-12-20T08:51:40;16.67;;;2.95;;
13244;SDS011;6689;53.400;12.486;2023-12-20T08:54:07;12.63;;;3.17;;
13244;SDS011;6689;53.400;12.486;2023-12-20T08:56:37;15.82;;;2.47;;
13244;SDS011;6689;53.400;12.486;2023-12-20T08:59:04;15.50;;;4.40;;
13244;SDS011;6689;53.400;12.486;2023-12-20T09:01:31;10.68;;;2.45;;
13244;SDS011;6689;53.400;12.486;2023-12-20T09:03:58;9.07;;;2.40;;
13244;SDS011;6689;53.400;12.486;2023-12-20T09:06:26;13.00;;;3.08;;
13244;SDS011;6689;53.400;12.486;2023-12-20T09:08:53;12.48;;;2.95;;
13244;SDS011;6689;53.400;12.486;2023-12-20T09:11:20;9.60;;;2.33;;
13244;SDS011;6689;53.400;12.486;2023-12-20T09:13:49;16.33;;;2.97;;
13244;SDS011;6689;53.400;12.486;2023-12-20T09:16:16;9.65;;;2.60;;
13244;SDS011;6689;53.400;12.486;2023-12-20T09:18:44;14.30;;;2.80;;
13244;SDS011;6689;53.400;12.486;2023-12-20T09:21:11;8.57;;;2.33;;
13244;SDS011;6689;53.400;12.486;2023-12-20T09:23:39;8.73;;;3.63;;
13244;SDS011;6689;53.400;12.486;2023-12-20T09:26:06;10.38;;;2.67;;
13244;SDS011;6689;53.400;12.486;2023-12-20T09:28:34;11.60;;;3.58;;
13244;SDS011;6689;53.400;12.486;2023-12-20T09:31:05;9.93;;;2.78;;
13244;SDS011;6689;53.400;12.486;2023-12-20T09:33:32;16.48;;;4.32;;
13244;SDS011;6689;53.400;12.486;2023-12-20T09:36:00;17.48;;;3.58;;
13244;SDS011;6689;53.400;12.486;2023-12-20T09:38:27;10.63;;;2.70;;
13244;SDS011;6689;53.400;12.486;2023-12-20T09:40:55;12.05;;;2.75;;
13244;SDS011;6689;53.400;12.486;2023-12-20T09:43:23;15.00;;;3.42;;
13244;SDS011;6689;53.400;12.486;2023-12-20T09:45:53;14.10;;;3.00;;
13244;SDS011;6689;53.400;12.486;2023-12-20T09:48:26;13.27;;;2.75;;
13244;SDS011;6689;53.400;12.486;2023-12-20T09:50:55;12.13;;;3.15;;
13244;SDS011;6689;53.400;12.486;2023-12-20T09:53:23;12.82;;;4.03;;
13244;SDS011;6689;53.400;12.486;2023-12-20T09:55:55;10.50;;;3.20;;
13244;SDS011;6689;53.400;12.486;2023-12-20T09:58:25;14.02;;;3.45;;
13244;SDS011;6689;53.400;12.486;2023-12-20T10:00:53;10.00;;;2.90;;
13244;SDS011;6689;53.400;12.486;2023-12-20T10:03:23;12.07;;;5.15;;
13244;SDS011;6689;53.400;12.486;2023-12-20T10:05:54;11.90;;;2.95;;
13244;SDS011;6689;53.400;12.486;2023-12-20T10:08:25;20.75;;;4.07;;
13244;SDS011;6689;53.400;12.486;2023-12-20T10:10:52;7.70;;;2.65;;
13244;SDS011;6689;53.400;12.486;2023-12-20T10:13:20;13.07;;;3.60;;
13244;SDS011;6689;53.400;12.486;2023-12-20T10:15:48;16.60;;;3.95;;
13244;SDS011;6689;53.400;12.486;2023-12-20T10:18:17;14.60;;;2.88;;
13244;SDS011;6689;53.400;12.486;2023-12-20T10:20:45;11.30;;;2.30;;
13244;SDS011;6689;53.400;12.486;2023-12-20T10:23:13;12.68;;;3.45;;
13244;SDS011;6689;53.400;12.486;2023-12-20T10:25:43;8.88;;;3.45;;
13244;SDS011;6689;53.400;12.486;2023-12-20T10:28:16;6.07;;;2.47;;
13244;SDS011;6689;53.400;12.486;2023-12-20T10:30:45;10.95;;;2.75;;
13244;SDS011;6689;53.400;12.486;2023-12-20T10:33:13;5.60;;;2.70;;
13244;SDS011;6689;53.400;12.486;2023-12-20T10:35:40;6.13;;;2.03;;
13244;SDS011;6689;53.400;12.486;2023-12-20T10:38:09;12.88;;;2.78;;
13244;SDS011;6689;53.400;12.486;2023-12-20T10:40:38;8.07;;;2.50;;
13244;SDS011;6689;53.400;12.486;2023-12-20T10:43:05;11.18;;;3.17;;
13244;SDS011;6689;53.400;12.486;2023-12-20T10:45:34;12.15;;;2.92;;
13244;SDS011;6689;53.400;12.486;2023-12-20T10:48:02;14.55;;;3.00;;
13244;SDS011;6689;53.400;12.486;2023-12-20T10:50:30;15.45;;;3.28;;
13244;SDS011;6689;53.400;12.486;2023-12-20T10:52:58;13.82;;;2.55;;
13244;SDS011;6689;53.400;12.486;2023-12-20T10:55:27;10.18;;;3.00;;
13244;SDS011;6689;53.400;12.486;2023-12-20T10:57:58;7.80;;;2.30;;
13244;SDS011;6689;53.400;12.486;2023-12-20T11:00:28;14.18;;;2.33;;
13244;SDS011;6689;53.400;12.486;2023-12-20T11:02:56;11.20;;;2.80;;
13244;SDS011;6689;53.400;12.486;2023-12-20T11:05:30;11.45;;;2.97;;
13244;SDS011;6689;53.400;12.486;2023-12-20T11:08:03;13.82;;;3.47;;
13244;SDS011;6689;53.400;12.486;2023-12-20T11:10:39;12.88;;;2.67;;
13244;SDS011;6689;53.400;12.486;2023-12-20T11:13:12;7.35;;;2.35;;
13244;SDS011;6689;53.400;12.486;2023-12-20T11:15:43;10.13;;;4.63;;
13244;SDS011;6689;53.400;12.486;2023-12-20T11:18:11;10.75;;;2.50;;
13244;SDS011;6689;53.400;12.486;2023-12-20T11:20:40;9.77;;;2.60;;
13244;SDS011;6689;53.400;12.486;2023-12-20T11:23:08;6.55;;;2.15;;
13244;SDS011;6689;53.400;12.486;2023-12-20T11:25:52;9.05;;;2.40;;
13244;SDS011;6689;53.400;12.486;2023-12-20T11:28:21;8.48;;;2.95;;
13244;SDS011;6689;53.400;12.486;2023-12-20T11:30:50;5.45;;;1.92;;
13244;SDS011;6689;53.400;12.486;2023-12-20T11:33:21;9.43;;;1.58;;
13244;SDS011;6689;53.400;12.486;2023-12-20T11:35:49;8.90;;;2.10;;
13244;SDS011;6689;53.400;12.486;2023-12-20T11:38:16;4.38;;;1.50;;
13244;SDS011;6689;53.400;12.486;2023-12-20T11:40:47;5.65;;;1.70;;
13244;SDS011;6689;53.400;12.486;2023-12-20T11:43:29;5.47;;;1.80;;
13244;SDS011;6689;53.400;12.486;2023-12-20T11:46:00;7.68;;;1.30;;
13244;SDS011;6689;53.400;12.486;2023-12-20T11:48:30;3.33;;;1.38;;
13244;SDS011;6689;53.400;12.486;2023-12-20T11:50:57;3.65;;;2.00;;
13244;SDS011;6689;53.400;12.486;2023-12-20T11:53:25;4.13;;;0.95;;
13244;SDS011;6689;53.400;12.486;2023-12-20T11:55:56;4.38;;;0.80;;
13244;SDS011;6689;53.400;12.486;2023-12-20T11:58:23;3.67;;;1.35;;
13244;SDS011;6689;53.400;12.486;2023-12-20T12:00:52;4.47;;;1.35;;
13244;SDS011;6689;53.400;12.486;2023-12-20T12:03:19;4.55;;;1.17;;
13244;SDS011;6689;53.400;12.486;2023-12-20T12:05:47;3.22;;;1.50;;
13244;SDS011;6689;53.400;12.486;2023-12-20T12:08:14;5.93;;;0.98;;
13244;SDS011;6689;53.400;12.486;2023-12-20T12:10:42;4.78;;;1.23;;
13244;SDS011;6689;53.400;12.486;2023-12-20T12:13:11;3.40;;;1.00;;
13244;SDS011;6689;53.400;12.486;2023-12-20T12:15:39;2.58;;;0.85;;
13244;SDS011;6689;53.400;12.486;2023-12-20T12:18:07;2.55;;;1.02;;
13244;SDS011;6689;53.400;12.486;2023-12-20T12:20:35;3.03;;;1.20;;
13244;SDS011;6689;53.400;12.486;2023-12-20T12:23:03;1.65;;;1.00;;
13244;SDS011;6689;53.400;12.486;2023-12-20T12:25:32;6.50;;;1.75;;
13244;SDS011;6689;53.400;12.486;2023-12-20T12:28:02;3.00;;;1.02;;
13244;SDS011;6689;53.400;12.486;2023-12-20T12:30:31;4.97;;;2.15;;
13244;SDS011;6689;53.400;12.486;2023-12-20T12:32:59;5.93;;;1.20;;
13244;SDS011;6689;53.400;12.486;2023-12-20T12:35:26;3.65;;;1.20;;
13244;SDS011;6689;53.400;12.486;2023-12-20T12:37:53;3.53;;;1.05;;
13244;SDS011;6689;53.400;12.486;2023-12-20T12:40:21;2.63;;;0.95;;
13244;SDS011;6689;53.400;12.486;2023-12-20T12:42:48;4.63;;;1.58;;
13244;SDS011;6689;53.400;12.486;2023-12-20T12:45:16;5.18;;;1.45;;
13244;SDS011;6689;53.400;12.486;2023-12-20T12:47:45;7.03;;;1.23;;
13244;SDS011;6689;53.400;12.486;2023-12-20T12:50:12;5.47;;;1.33;;
13244;SDS011;6689;53.400;12.486;2023-12-20T12:52:39;2.80;;;0.95;;
13244;SDS011;6689;53.400;12.486;2023-12-20T12:55:07;4.50;;;1.13;;
13244;SDS011;6689;53.400;12.486;2023-12-20T12:57:34;6.90;;;1.38;;
13244;SDS011;6689;53.400;12.486;2023-12-20T13:00:04;3.63;;;0.85;;
13244;SDS011;6689;53.400;12.486;2023-12-20T13:02:43;2.38;;;0.82;;
13244;SDS011;6689;53.400;12.486;2023-12-20T13:05:12;4.68;;;0.95;;
13244;SDS011;6689;53.400;12.486;2023-12-20T13:07:39;7.05;;;1.40;;
13244;SDS011;6689;53.400;12.486;2023-12-20T13:10:10;3.53;;;1.00;;
13244;SDS011;6689;53.400;12.486;2023-12-20T13:12:37;2.78;;;0.88;;
13244;SDS011;6689;53.400;12.486;2023-12-20T13:15:05;3.92;;;1.05;;
13244;SDS011;6689;53.400;12.486;2023-12-20T13:17:34;3.15;;;0.90;;
13244;SDS011;6689;53.400;12.486;2023-12-20T13:20:04;4.03;;;0.90;;
13244;SDS011;6689;53.400;12.486;2023-12-20T13:22:33;3.83;;;0.82;;
13244;SDS011;6689;53.400;12.486;2023-12-20T13:25:01;1.23;;;0.60;;
13244;SDS011;6689;53.400;12.486;2023-12-20T13:27:29;5.85;;;1.15;;
13244;SDS011;6689;53.400;12.486;2023-12-20T13:29:58;4.45;;;1.20;;
13244;SDS011;6689;53.400;12.486;2023-12-20T13:32:25;5.63;;;1.02;;
13244;SDS011;6689;53.400;12.486;2023-12-20T13:34:52;5.20;;;1.00;;
13244;SDS011;6689;53.400;12.486;2023-12-20T13:37:21;2.88;;;2.13;;
13244;SDS011;6689;53.400;12.486;2023-12-20T13:39:48;5.50;;;1.25;;
13244;SDS011;6689;53.400;12.486;2023-12-20T13:42:16;3.72;;;1.00;;
13244;SDS011;6689;53.400;12.486;2023-12-20T13:44:43;7.43;;;1.98;;
13244;SDS011;6689;53.400;12.486;2023-12-20T13:47:10;5.97;;;1.58;;
13244;SDS011;6689;53.400;12.486;2023-12-20T13:49:37;7.53;;;1.48;;
13244;SDS011;6689;53.400;12.486;2023-12-20T13:52:05;3.88;;;1.23;;
13244;SDS011;6689;53.400;12.486;2023-12-20T13:54:34;4.53;;;1.13;;
13244;SDS011;6689;53.400;12.486;2023-12-20T13:57:01;9.18;;;1.60;;
13244;SDS011;6689;53.400;12.486;2023-12-20T13:59:29;4.75;;;1.20;;
13244;SDS011;6689;53.400;12.486;2023-12-20T14:01:57;7.40;;;2.03;;
13244;SDS011;6689;53.400;12.486;2023-12-20T14:04:26;8.27;;;1.85;;
13244;SDS011;6689;53.400;12.486;2023-12-20T14:06:57;7.00;;;2.03;;
13244;SDS011;6689;53.400;12.486;2023-12-20T14:09:24;19.92;;;3.30;;
13244;SDS011;6689;53.400;12.486;2023-12-20T14:11:53;11.68;;;2.00;;
13244;SDS011;6689;53.400;12.486;2023-12-20T14:14:21;5.00;;;1.48;;
13244;SDS011;6689;53.400;12.486;2023-12-20T14:16:49;9.15;;;1.58;;
13244;SDS011;6689;53.400;12.486;2023-12-20T14:19:16;6.55;;;1.30;;
13244;SDS011;6689;53.400;12.486;2023-12-20T14:21:43;7.43;;;1.73;;
13244;SDS011;6689;53.400;12.486;2023-12-20T14:24:12;15.93;;;4.40;;
13244;SDS011;6689;53.400;12.486;2023-12-20T14:26:40;9.95;;;1.50;;
13244;SDS011;6689;53.400;12.486;2023-12-20T14:29:09;9.13;;;1.55;;
13244;SDS011;6689;53.400;12.486;2023-12-20T14:31:36;8.13;;;1.58;;
13244;SDS011;6689;53.400;12.486;2023-12-20T14:34:05;14.77;;;2.35;;
13244;SDS011;6689;53.400;12.486;2023-12-20T14:36:34;10.65;;;1.75;;
13244;SDS011;6689;53.400;12.486;2023-12-20T14:39:01;5.90;;;1.92;;
13244;SDS011;6689;53.400;12.486;2023-12-20T14:41:31;11.80;;;2.42;;
13244;SDS011;6689;53.400;12.486;2023-12-20T14:43:59;8.95;;;1.80;;
13244;SDS011;6689;53.400;12.486;2023-12-20T14:46:31;9.88;;;2.30;;
13244;SDS011;6689;53.400;12.486;2023-12-20T14:48:59;10.57;;;2.92;;
13244;SDS011;6689;53.400;12.486;2023-12-20T14:51:27;11.73;;;3.22;;
13244;SDS011;6689;53.400;12.486;2023-12-20T14:53:55;7.65;;;2.15;;
13244;SDS011;6689;53.400;12.486;2023-12-20T14:56:22;8.88;;;2.03;;
13244;SDS011;6689;53.400;12.486;2023-12-20T14:58:51;6.57;;;1.92;;
13244;SDS011;6689;53.400;12.486;2023-12-20T15:01:19;9.15;;;2.45;;
13244;SDS011;6689;53.400;12.486;2023-12-20T15:03:48;6.82;;;2.13;;
13244;SDS011;6689;53.400;12.486;2023-12-20T15:06:15;6.78;;;2.22;;
13244;SDS011;6689;53.400;12.486;2023-12-20T15:08:45;9.07;;;2.67;;
13244;SDS011;6689;53.400;12.486;2023-12-20T15:11:12;5.30;;;1.80;;